sensor_id;sensor_type;location;lat;lon;timestamp;P1;durP1;ratioP1;P2;durP2;ratioP2
35223;SDS011;21367;51.930;8.112;2023-07-31T00:02:58;20.05;;;6.38;;
35223;SDS011;21367;51.930;8.112;2023-07-31T00:08:03;13.27;;;5.63;;
35223;SDS011;21367;51.930;8.112;2023-07-31T00:13:06;6.43;;;3.50;;
35223;SDS011;21367;51.930;8.112;2023-07-31T00:18:12;6.03;;;2.92;;
35223;SDS011;21367;51.930;8.112;2023-07-31T00:28:19;5.82;;;2.75;;
35223;SDS011;21367;51.930;8.112;2023-07-31T00:33:26;7.80;;;2.40;;
35223;SDS011;21367;51.930;8.112;2023-07-31T00:38:30;4.68;;;2.20;;
35223;SDS011;21367;51.930;8.112;2023-07-31T00:43:33;3.05;;;1.90;;
35223;SDS011;21367;51.930;8.112;2023-07-31T00:48:39;4.68;;;2.08;;
35223;SDS011;21367;51.930;8.112;2023-07-31T00:53:43;3.13;;;1.85;;
35223;SDS011;21367;51.930;8.112;2023-07-31T00:58:48;4.78;;;2.08;;
35223;SDS011;21367;51.930;8.112;2023-07-31T01:03:54;3.58;;;1.63;;
35223;SDS011;21367;51.930;8.112;2023-07-31T01:09:00;3.13;;;1.33;;
35223;SDS011;21367;51.930;8.112;2023-07-31T01:14:06;7.47;;;1.60;;
35223;SDS011;21367;51.930;8.112;2023-07-31T01:19:12;2.47;;;1.30;;
35223;SDS011;21367;51.930;8.112;2023-07-31T01:24:21;3.47;;;1.67;;
35223;SDS011;21367;51.930;8.112;2023-07-31T01:29:32;3.33;;;1.70;;
35223;SDS011;21367;51.930;8.112;2023-07-31T01:40:12;3.88;;;1.63;;
35223;SDS011;21367;51.930;8.112;2023-07-31T01:45:19;3.45;;;2.15;;
35223;SDS011;21367;51.930;8.112;2023-07-31T01:50:22;3.25;;;1.90;;
35223;SDS011;21367;51.930;8.112;2023-07-31T01:55:26;4.55;;;1.65;;
35223;SDS011;21367;51.930;8.112;2023-07-31T02:00:32;4.18;;;1.73;;
35223;SDS011;21367;51.930;8.112;2023-07-31T02:10:39;4.45;;;2.10;;
35223;SDS011;21367;51.930;8.112;2023-07-31T02:15:46;5.07;;;2.22;;
35223;SDS011;21367;51.930;8.112;2023-07-31T02:20:50;7.70;;;2.58;;
35223;SDS011;21367;51.930;8.112;2023-07-31T02:25:55;19.90;;;5.07;;
35223;SDS011;21367;51.930;8.112;2023-07-31T02:31:02;16.63;;;5.22;;
35223;SDS011;21367;51.930;8.112;2023-07-31T02:36:05;16.83;;;6.00;;
35223;SDS011;21367;51.930;8.112;2023-07-31T02:41:09;19.05;;;8.10;;
35223;SDS011;21367;51.930;8.112;2023-07-31T02:46:15;21.42;;;10.25;;
35223;SDS011;21367;51.930;8.112;2023-07-31T02:51:19;26.00;;;11.60;;
35223;SDS011;21367;51.930;8.112;2023-07-31T02:56:23;31.33;;;13.52;;
35223;SDS011;21367;51.930;8.112;2023-07-31T03:01:29;28.65;;;13.05;;
35223;SDS011;21367;51.930;8.112;2023-07-31T03:06:33;37.22;;;14.57;;
35223;SDS011;21367;51.930;8.112;2023-07-31T03:11:37;29.80;;;12.80;;
35223;SDS011;21367;51.930;8.112;2023-07-31T03:16:43;33.75;;;13.57;;
35223;SDS011;21367;51.930;8.112;2023-07-31T03:26:50;32.20;;;12.20;;
35223;SDS011;21367;51.930;8.112;2023-07-31T03:31:56;36.60;;;11.52;;
35223;SDS011;21367;51.930;8.112;2023-07-31T03:37:01;27.20;;;10.57;;
35223;SDS011;21367;51.930;8.112;2023-07-31T03:42:06;43.17;;;13.20;;
35223;SDS011;21367;51.930;8.112;2023-07-31T03:47:12;37.00;;;12.60;;
35223;SDS011;21367;51.930;8.112;2023-07-31T03:57:19;30.45;;;11.07;;
35223;SDS011;21367;51.930;8.112;2023-07-31T04:02:25;25.90;;;9.90;;
35223;SDS011;21367;51.930;8.112;2023-07-31T04:07:29;37.65;;;10.10;;
35223;SDS011;21367;51.930;8.112;2023-07-31T04:12:33;35.50;;;9.07;;
35223;SDS011;21367;51.930;8.112;2023-07-31T04:17:39;33.25;;;10.80;;
35223;SDS011;21367;51.930;8.112;2023-07-31T04:27:46;40.78;;;11.13;;
35223;SDS011;21367;51.930;8.112;2023-07-31T04:32:52;30.85;;;9.40;;
35223;SDS011;21367;51.930;8.112;2023-07-31T04:37:56;32.67;;;9.15;;
35223;SDS011;21367;51.930;8.112;2023-07-31T04:42:59;30.33;;;8.70;;
35223;SDS011;21367;51.930;8.112;2023-07-31T04:48:06;29.02;;;9.10;;
35223;SDS011;21367;51.930;8.112;2023-07-31T04:53:10;33.17;;;7.35;;
35223;SDS011;21367;51.930;8.112;2023-07-31T04:58:13;28.83;;;7.35;;
35223;SDS011;21367;51.930;8.112;2023-07-31T05:03:19;24.63;;;7.68;;
35223;SDS011;21367;51.930;8.112;2023-07-31T05:13:26;27.20;;;7.57;;
35223;SDS011;21367;51.930;8.112;2023-07-31T05:18:33;34.28;;;7.28;;
35223;SDS011;21367;51.930;8.112;2023-07-31T05:28:40;39.13;;;8.32;;
35223;SDS011;21367;51.930;8.112;2023-07-31T05:33:46;19.67;;;6.70;;
35223;SDS011;21367;51.930;8.112;2023-07-31T05:38:50;35.00;;;7.45;;
35223;SDS011;21367;51.930;8.112;2023-07-31T05:43:54;26.60;;;7.20;;
35223;SDS011;21367;51.930;8.112;2023-07-31T05:49:00;26.10;;;8.98;;
35223;SDS011;21367;51.930;8.112;2023-07-31T05:54:04;21.75;;;7.18;;
35223;SDS011;21367;51.930;8.112;2023-07-31T05:59:12;29.13;;;7.22;;
35223;SDS011;21367;51.930;8.112;2023-07-31T06:04:18;33.97;;;8.05;;
35223;SDS011;21367;51.930;8.112;2023-07-31T06:14:26;19.35;;;6.40;;
35223;SDS011;21367;51.930;8.112;2023-07-31T06:19:32;26.23;;;6.85;;
35223;SDS011;21367;51.930;8.112;2023-07-31T06:24:36;26.25;;;6.75;;
35223;SDS011;21367;51.930;8.112;2023-07-31T06:29:39;26.17;;;6.22;;
35223;SDS011;21367;51.930;8.112;2023-07-31T06:34:45;24.85;;;6.47;;
35223;SDS011;21367;51.930;8.112;2023-07-31T06:39:49;21.80;;;6.28;;
35223;SDS011;21367;51.930;8.112;2023-07-31T06:44:53;26.15;;;6.68;;
35223;SDS011;21367;51.930;8.112;2023-07-31T06:49:59;24.52;;;7.15;;
35223;SDS011;21367;51.930;8.112;2023-07-31T07:00:08;20.27;;;7.18;;
35223;SDS011;21367;51.930;8.112;2023-07-31T07:05:15;22.60;;;6.97;;
35223;SDS011;21367;51.930;8.112;2023-07-31T07:10:19;27.00;;;6.93;;
35223;SDS011;21367;51.930;8.112;2023-07-31T07:15:23;17.38;;;6.05;;
35223;SDS011;21367;51.930;8.112;2023-07-31T07:20:29;23.63;;;7.88;;
35223;SDS011;21367;51.930;8.112;2023-07-31T07:25:33;21.63;;;6.82;;
35223;SDS011;21367;51.930;8.112;2023-07-31T07:30:40;17.02;;;5.95;;
35223;SDS011;21367;51.930;8.112;2023-07-31T07:35:46;20.65;;;6.25;;
35223;SDS011;21367;51.930;8.112;2023-07-31T07:40:50;17.27;;;6.72;;
35223;SDS011;21367;51.930;8.112;2023-07-31T07:45:54;16.83;;;6.20;;
35223;SDS011;21367;51.930;8.112;2023-07-31T07:51:00;15.18;;;6.95;;
35223;SDS011;21367;51.930;8.112;2023-07-31T07:56:04;13.45;;;6.63;;
35223;SDS011;21367;51.930;8.112;2023-07-31T08:01:08;15.00;;;7.18;;
35223;SDS011;21367;51.930;8.112;2023-07-31T08:06:14;13.00;;;7.00;;
35223;SDS011;21367;51.930;8.112;2023-07-31T08:16:22;17.77;;;5.95;;
35223;SDS011;21367;51.930;8.112;2023-07-31T08:21:28;17.40;;;7.72;;
35223;SDS011;21367;51.930;8.112;2023-07-31T08:31:35;17.75;;;7.25;;
35223;SDS011;21367;51.930;8.112;2023-07-31T08:36:41;15.48;;;7.13;;
35223;SDS011;21367;51.930;8.112;2023-07-31T08:41:44;17.50;;;6.68;;
35223;SDS011;21367;51.930;8.112;2023-07-31T08:46:48;10.57;;;5.30;;
35223;SDS011;21367;51.930;8.112;2023-07-31T08:51:55;17.00;;;5.78;;
35223;SDS011;21367;51.930;8.112;2023-07-31T08:56:59;11.40;;;4.70;;
35223;SDS011;21367;51.930;8.112;2023-07-31T09:02:05;10.10;;;4.93;;
35223;SDS011;21367;51.930;8.112;2023-07-31T09:07:13;11.00;;;4.22;;
35223;SDS011;21367;51.930;8.112;2023-07-31T09:12:18;7.65;;;3.33;;
35223;SDS011;21367;51.930;8.112;2023-07-31T09:17:28;7.80;;;3.70;;
35223;SDS011;21367;51.930;8.112;2023-07-31T09:22:35;13.18;;;4.40;;
35223;SDS011;21367;51.930;8.112;2023-07-31T09:27:45;11.18;;;4.15;;
35223;SDS011;21367;51.930;8.112;2023-07-31T09:32:50;8.93;;;3.40;;
35223;SDS011;21367;51.930;8.112;2023-07-31T09:37:58;10.45;;;3.47;;
35223;SDS011;21367;51.930;8.112;2023-07-31T09:43:04;9.80;;;3.10;;
35223;SDS011;21367;51.930;8.112;2023-07-31T09:48:09;6.70;;;3.13;;
35223;SDS011;21367;51.930;8.112;2023-07-31T09:53:16;6.25;;;2.90;;
35223;SDS011;21367;51.930;8.112;2023-07-31T09:58:20;7.13;;;2.80;;
35223;SDS011;21367;51.930;8.112;2023-07-31T10:03:24;5.05;;;2.20;;
35223;SDS011;21367;51.930;8.112;2023-07-31T10:08:32;5.50;;;2.20;;
35223;SDS011;21367;51.930;8.112;2023-07-31T10:13:39;3.80;;;1.85;;
35223;SDS011;21367;51.930;8.112;2023-07-31T10:18:45;3.58;;;1.50;;
35223;SDS011;21367;51.930;8.112;2023-07-31T10:23:52;3.60;;;1.67;;
35223;SDS011;21367;51.930;8.112;2023-07-31T10:28:58;2.13;;;1.30;;
35223;SDS011;21367;51.930;8.112;2023-07-31T10:34:02;4.47;;;1.70;;
35223;SDS011;21367;51.930;8.112;2023-07-31T10:39:34;3.90;;;1.33;;
35223;SDS011;21367;51.930;8.112;2023-07-31T10:44:43;4.43;;;1.80;;
35223;SDS011;21367;51.930;8.112;2023-07-31T10:49:47;3.15;;;1.58;;
35223;SDS011;21367;51.930;8.112;2023-07-31T10:54:55;3.50;;;1.85;;
35223;SDS011;21367;51.930;8.112;2023-07-31T11:00:18;3.77;;;1.70;;
35223;SDS011;21367;51.930;8.112;2023-07-31T11:05:34;3.80;;;1.73;;
35223;SDS011;21367;51.930;8.112;2023-07-31T11:11:04;2.90;;;1.90;;
35223;SDS011;21367;51.930;8.112;2023-07-31T11:16:09;4.30;;;2.20;;
35223;SDS011;21367;51.930;8.112;2023-07-31T11:21:14;4.13;;;1.77;;
35223;SDS011;21367;51.930;8.112;2023-07-31T11:26:21;2.67;;;1.42;;
35223;SDS011;21367;51.930;8.112;2023-07-31T11:31:27;3.70;;;1.85;;
35223;SDS011;21367;51.930;8.112;2023-07-31T11:36:30;6.10;;;2.25;;
35223;SDS011;21367;51.930;8.112;2023-07-31T11:41:37;3.65;;;1.98;;
35223;SDS011;21367;51.930;8.112;2023-07-31T11:46:43;5.65;;;2.15;;
35223;SDS011;21367;51.930;8.112;2023-07-31T11:51:47;3.58;;;1.60;;
35223;SDS011;21367;51.930;8.112;2023-07-31T11:56:54;4.15;;;2.17;;
35223;SDS011;21367;51.930;8.112;2023-07-31T12:01:58;6.25;;;1.67;;
35223;SDS011;21367;51.930;8.112;2023-07-31T12:07:02;3.85;;;1.50;;
35223;SDS011;21367;51.930;8.112;2023-07-31T12:12:10;3.95;;;1.67;;
35223;SDS011;21367;51.930;8.112;2023-07-31T12:17:14;5.45;;;2.40;;
35223;SDS011;21367;51.930;8.112;2023-07-31T12:22:17;4.90;;;3.10;;
35223;SDS011;21367;51.930;8.112;2023-07-31T12:32:35;9.05;;;5.32;;
35223;SDS011;21367;51.930;8.112;2023-07-31T12:37:39;9.82;;;5.72;;
35223;SDS011;21367;51.930;8.112;2023-07-31T12:42:46;12.57;;;6.32;;
35223;SDS011;21367;51.930;8.112;2023-07-31T12:47:51;11.05;;;6.65;;
35223;SDS011;21367;51.930;8.112;2023-07-31T12:52:55;11.00;;;6.38;;
35223;SDS011;21367;51.930;8.112;2023-07-31T12:58:02;14.82;;;4.78;;
35223;SDS011;21367;51.930;8.112;2023-07-31T13:03:06;8.55;;;4.32;;
35223;SDS011;21367;51.930;8.112;2023-07-31T13:08:11;10.82;;;4.05;;
35223;SDS011;21367;51.930;8.112;2023-07-31T13:13:18;6.63;;;3.50;;
35223;SDS011;21367;51.930;8.112;2023-07-31T13:18:22;5.28;;;3.40;;
35223;SDS011;21367;51.930;8.112;2023-07-31T13:23:26;8.70;;;3.53;;
35223;SDS011;21367;51.930;8.112;2023-07-31T13:28:32;8.20;;;3.58;;
35223;SDS011;21367;51.930;8.112;2023-07-31T13:33:36;9.65;;;4.50;;
35223;SDS011;21367;51.930;8.112;2023-07-31T13:38:39;10.35;;;5.03;;
35223;SDS011;21367;51.930;8.112;2023-07-31T13:43:45;11.30;;;4.68;;
35223;SDS011;21367;51.930;8.112;2023-07-31T13:48:49;12.80;;;4.85;;
35223;SDS011;21367;51.930;8.112;2023-07-31T13:53:55;7.63;;;4.72;;
35223;SDS011;21367;51.930;8.112;2023-07-31T13:59:01;8.00;;;4.15;;
35223;SDS011;21367;51.930;8.112;2023-07-31T14:09:08;5.75;;;3.85;;
35223;SDS011;21367;51.930;8.112;2023-07-31T14:14:14;7.78;;;4.93;;
35223;SDS011;21367;51.930;8.112;2023-07-31T14:19:19;11.75;;;5.25;;
35223;SDS011;21367;51.930;8.112;2023-07-31T14:24:25;8.50;;;5.20;;
35223;SDS011;21367;51.930;8.112;2023-07-31T14:29:31;6.65;;;4.20;;
35223;SDS011;21367;51.930;8.112;2023-07-31T14:34:35;8.10;;;4.13;;
35223;SDS011;21367;51.930;8.112;2023-07-31T14:39:38;8.32;;;4.30;;
35223;SDS011;21367;51.930;8.112;2023-07-31T14:44:45;7.88;;;3.80;;
35223;SDS011;21367;51.930;8.112;2023-07-31T14:49:49;6.07;;;2.95;;
35223;SDS011;21367;51.930;8.112;2023-07-31T14:54:56;6.63;;;3.60;;
35223;SDS011;21367;51.930;8.112;2023-07-31T15:00:03;7.78;;;4.25;;
35223;SDS011;21367;51.930;8.112;2023-07-31T15:05:08;7.22;;;4.57;;
35223;SDS011;21367;51.930;8.112;2023-07-31T15:10:12;5.80;;;3.60;;
35223;SDS011;21367;51.930;8.112;2023-07-31T15:15:18;8.93;;;4.05;;
35223;SDS011;21367;51.930;8.112;2023-07-31T15:20:22;7.75;;;4.13;;
35223;SDS011;21367;51.930;8.112;2023-07-31T15:25:25;6.07;;;3.30;;
35223;SDS011;21367;51.930;8.112;2023-07-31T15:30:32;8.05;;;3.40;;
35223;SDS011;21367;51.930;8.112;2023-07-31T15:35:36;5.07;;;2.95;;
35223;SDS011;21367;51.930;8.112;2023-07-31T15:40:41;12.67;;;3.33;;
35223;SDS011;21367;51.930;8.112;2023-07-31T15:45:47;6.72;;;3.35;;
35223;SDS011;21367;51.930;8.112;2023-07-31T15:50:51;8.93;;;3.33;;
35223;SDS011;21367;51.930;8.112;2023-07-31T15:55:55;9.20;;;3.40;;
35223;SDS011;21367;51.930;8.112;2023-07-31T16:01:01;7.20;;;3.30;;
35223;SDS011;21367;51.930;8.112;2023-07-31T16:06:05;8.73;;;3.50;;
35223;SDS011;21367;51.930;8.112;2023-07-31T16:11:09;11.60;;;3.38;;
35223;SDS011;21367;51.930;8.112;2023-07-31T16:16:15;6.07;;;2.75;;
35223;SDS011;21367;51.930;8.112;2023-07-31T16:21:20;8.07;;;3.22;;
35223;SDS011;21367;51.930;8.112;2023-07-31T16:26:24;6.95;;;3.17;;
35223;SDS011;21367;51.930;8.112;2023-07-31T16:31:30;13.00;;;3.40;;
35223;SDS011;21367;51.930;8.112;2023-07-31T16:36:34;12.23;;;3.83;;
35223;SDS011;21367;51.930;8.112;2023-07-31T16:41:37;11.85;;;3.90;;
35223;SDS011;21367;51.930;8.112;2023-07-31T16:46:44;9.30;;;3.20;;
35223;SDS011;21367;51.930;8.112;2023-07-31T16:56:51;13.45;;;4.93;;
35223;SDS011;21367;51.930;8.112;2023-07-31T17:01:57;14.30;;;5.07;;
35223;SDS011;21367;51.930;8.112;2023-07-31T17:07:01;14.40;;;5.45;;
35223;SDS011;21367;51.930;8.112;2023-07-31T17:12:05;14.35;;;5.40;;
35223;SDS011;21367;51.930;8.112;2023-07-31T17:17:13;14.57;;;5.22;;
35223;SDS011;21367;51.930;8.112;2023-07-31T17:22:17;9.75;;;5.25;;
35223;SDS011;21367;51.930;8.112;2023-07-31T17:27:20;25.23;;;6.97;;
35223;SDS011;21367;51.930;8.112;2023-07-31T17:32:28;15.00;;;6.20;;
35223;SDS011;21367;51.930;8.112;2023-07-31T17:37:31;12.60;;;5.28;;
35223;SDS011;21367;51.930;8.112;2023-07-31T17:42:35;13.00;;;5.10;;
35223;SDS011;21367;51.930;8.112;2023-07-31T17:47:41;14.15;;;5.43;;
35223;SDS011;21367;51.930;8.112;2023-07-31T17:52:45;13.13;;;4.60;;
35223;SDS011;21367;51.930;8.112;2023-07-31T17:57:49;9.27;;;4.43;;
35223;SDS011;21367;51.930;8.112;2023-07-31T18:02:55;10.55;;;4.93;;
35223;SDS011;21367;51.930;8.112;2023-07-31T18:07:59;10.20;;;4.55;;
35223;SDS011;21367;51.930;8.112;2023-07-31T18:13:02;8.73;;;4.65;;
35223;SDS011;21367;51.930;8.112;2023-07-31T18:18:08;10.85;;;4.55;;
35223;SDS011;21367;51.930;8.112;2023-07-31T18:23:12;10.38;;;5.20;;
35223;SDS011;21367;51.930;8.112;2023-07-31T18:28:16;9.23;;;5.25;;
35223;SDS011;21367;51.930;8.112;2023-07-31T18:33:22;14.95;;;5.07;;
35223;SDS011;21367;51.930;8.112;2023-07-31T18:38:26;11.57;;;5.05;;
35223;SDS011;21367;51.930;8.112;2023-07-31T18:43:32;9.95;;;4.68;;
35223;SDS011;21367;51.930;8.112;2023-07-31T18:48:39;9.50;;;4.63;;
35223;SDS011;21367;51.930;8.112;2023-07-31T18:58:46;9.00;;;3.85;;
35223;SDS011;21367;51.930;8.112;2023-07-31T19:03:54;12.00;;;4.45;;
35223;SDS011;21367;51.930;8.112;2023-07-31T19:08:58;10.18;;;3.83;;
35223;SDS011;21367;51.930;8.112;2023-07-31T19:14:02;10.13;;;3.78;;
35223;SDS011;21367;51.930;8.112;2023-07-31T19:19:08;8.88;;;3.78;;
35223;SDS011;21367;51.930;8.112;2023-07-31T19:24:14;9.85;;;3.70;;
35223;SDS011;21367;51.930;8.112;2023-07-31T19:29:17;11.75;;;3.70;;
35223;SDS011;21367;51.930;8.112;2023-07-31T19:34:24;8.15;;;3.30;;
35223;SDS011;21367;51.930;8.112;2023-07-31T19:39:27;9.95;;;3.08;;
35223;SDS011;21367;51.930;8.112;2023-07-31T19:44:31;9.43;;;3.33;;
35223;SDS011;21367;51.930;8.112;2023-07-31T19:49:37;5.82;;;2.80;;
35223;SDS011;21367;51.930;8.112;2023-07-31T19:54:41;7.75;;;2.72;;
35223;SDS011;21367;51.930;8.112;2023-07-31T19:59:45;6.07;;;3.10;;
35223;SDS011;21367;51.930;8.112;2023-07-31T20:04:51;10.05;;;2.72;;
35223;SDS011;21367;51.930;8.112;2023-07-31T20:14:59;5.75;;;2.60;;
35223;SDS011;21367;51.930;8.112;2023-07-31T20:20:07;5.28;;;2.25;;
35223;SDS011;21367;51.930;8.112;2023-07-31T20:25:11;4.20;;;2.00;;
35223;SDS011;21367;51.930;8.112;2023-07-31T20:30:15;3.75;;;1.83;;
35223;SDS011;21367;51.930;8.112;2023-07-31T20:35:21;6.18;;;1.70;;
35223;SDS011;21367;51.930;8.112;2023-07-31T20:40:25;4.53;;;2.10;;
35223;SDS011;21367;51.930;8.112;2023-07-31T20:45:29;8.80;;;1.65;;
35223;SDS011;21367;51.930;8.112;2023-07-31T20:50:40;7.20;;;2.00;;
35223;SDS011;21367;51.930;8.112;2023-07-31T20:55:43;2.85;;;1.88;;
35223;SDS011;21367;51.930;8.112;2023-07-31T21:00:47;6.60;;;1.60;;
35223;SDS011;21367;51.930;8.112;2023-07-31T21:05:53;3.78;;;1.60;;
35223;SDS011;21367;51.930;8.112;2023-07-31T21:10:57;4.95;;;2.00;;
35223;SDS011;21367;51.930;8.112;2023-07-31T21:16:01;14.55;;;2.40;;
35223;SDS011;21367;51.930;8.112;2023-07-31T21:21:08;9.85;;;3.72;;
35223;SDS011;21367;51.930;8.112;2023-07-31T21:26:12;8.20;;;3.20;;
35223;SDS011;21367;51.930;8.112;2023-07-31T21:31:16;5.30;;;2.40;;
35223;SDS011;21367;51.930;8.112;2023-07-31T21:36:22;3.25;;;1.80;;
35223;SDS011;21367;51.930;8.112;2023-07-31T21:41:26;4.03;;;2.08;;
35223;SDS011;21367;51.930;8.112;2023-07-31T21:46:30;4.30;;;2.13;;
35223;SDS011;21367;51.930;8.112;2023-07-31T21:51:36;7.20;;;2.35;;
35223;SDS011;21367;51.930;8.112;2023-07-31T22:01:43;4.38;;;1.92;;
35223;SDS011;21367;51.930;8.112;2023-07-31T22:06:49;6.38;;;1.70;;
35223;SDS011;21367;51.930;8.112;2023-07-31T22:16:56;1.92;;;1.20;;
35223;SDS011;21367;51.930;8.112;2023-07-31T22:22:02;3.00;;;1.05;;
35223;SDS011;21367;51.930;8.112;2023-07-31T22:27:07;4.20;;;1.70;;
35223;SDS011;21367;51.930;8.112;2023-07-31T22:32:10;3.65;;;2.67;;
35223;SDS011;21367;51.930;8.112;2023-07-31T22:37:16;4.57;;;2.50;;
35223;SDS011;21367;51.930;8.112;2023-07-31T22:47:24;3.92;;;2.20;;
35223;SDS011;21367;51.930;8.112;2023-07-31T22:52:30;3.25;;;1.60;;
35223;SDS011;21367;51.930;8.112;2023-07-31T22:57:34;3.08;;;1.40;;
35223;SDS011;21367;51.930;8.112;2023-07-31T23:02:37;5.10;;;1.00;;
35223;SDS011;21367;51.930;8.112;2023-07-31T23:07:44;2.60;;;1.10;;
35223;SDS011;21367;51.930;8.112;2023-07-31T23:17:51;1.80;;;1.10;;
35223;SDS011;21367;51.930;8.112;2023-07-31T23:22:57;2.58;;;1.42;;
35223;SDS011;21367;51.930;8.112;2023-07-31T23:33:04;2.20;;;1.40;;
35223;SDS011;21367;51.930;8.112;2023-07-31T23:38:11;4.30;;;1.73;;
35223;SDS011;21367;51.930;8.112;2023-07-31T23:43:14;2.40;;;1.50;;
35223;SDS011;21367;51.930;8.112;2023-07-31T23:48:18;2.45;;;1.52;;
35223;SDS011;21367;51.930;8.112;2023-07-31T23:53:24;3.08;;;1.88;;
